createdAt,value
2022-12-06T00:00:26.720Z,46.55
2022-12-06T00:03:45.675Z,56.22
2022-12-06T00:06:52.294Z,43.05
2022-12-06T00:09:59.280Z,61.75
2022-12-06T00:13:05.705Z,52.38
2022-12-06T00:16:14.737Z,61.70
2022-12-06T00:19:22.560Z,52.75
2022-12-06T00:22:30.300Z,56.03
2022-12-06T00:25:39.324Z,59.28
2022-12-06T00:28:44.677Z,51.22
2022-12-06T00:31:54.169Z,56.33
2022-12-06T00:35:00.045Z,48.90
2022-12-06T00:38:06.778Z,56.40
2022-12-06T00:41:13.290Z,36.90
2022-12-06T00:44:18.371Z,42.50
2022-12-06T00:47:28.818Z,50.97
2022-12-06T00:50:36.357Z,45.08
2022-12-06T00:53:42.031Z,54.10
2022-12-06T00:56:49.528Z,44.03
2022-12-06T00:59:55.170Z,46.90
2022-12-06T01:03:06.065Z,53.67
2022-12-06T01:06:12.506Z,52.05
2022-12-06T01:09:20.126Z,53.58
2022-12-06T01:12:25.318Z,53.22
2022-12-06T01:15:30.192Z,59.60
2022-12-06T01:18:38.063Z,53.45
2022-12-06T01:21:43.649Z,38.25
2022-12-06T01:24:50.217Z,45.70
2022-12-06T01:27:55.360Z,60.08
2022-12-06T01:31:01.062Z,40.88
2022-12-06T01:34:08.813Z,31.75
2022-12-06T01:37:14.562Z,50.35
2022-12-06T01:40:22.492Z,47.70
2022-12-06T01:43:38.558Z,48.30
2022-12-06T01:46:45.590Z,37.92
2022-12-06T01:49:55.780Z,48.83
2022-12-06T01:53:04.241Z,39.80
2022-12-06T01:56:10.284Z,46.65
2022-12-06T01:59:19.413Z,44.50
2022-12-06T02:02:25.792Z,37.55
2022-12-06T02:05:39.111Z,38.75
2022-12-06T02:08:46.625Z,36.85
2022-12-06T02:11:51.608Z,35.00
2022-12-06T02:14:57.796Z,34.33
2022-12-06T02:18:06.852Z,43.83
2022-12-06T02:21:22.687Z,39.60
2022-12-06T02:25:00.278Z,41.08
2022-12-06T02:28:15.630Z,38.65
2022-12-06T02:31:25.943Z,38.30
2022-12-06T02:34:34.465Z,40.95
2022-12-06T02:37:45.588Z,41.65
2022-12-06T02:40:55.066Z,34.40
2022-12-06T02:44:04.314Z,38.90
2022-12-06T02:47:14.602Z,47.30
2022-12-06T02:50:22.205Z,42.83
2022-12-06T02:53:30.225Z,41.03
2022-12-06T02:56:36.371Z,29.58
2022-12-06T02:59:42.362Z,40.28
2022-12-06T03:02:54.179Z,40.35
2022-12-06T03:06:12.267Z,37.95
2022-12-06T03:09:26.373Z,37.42
2022-12-06T03:12:33.675Z,40.40
2022-12-06T03:15:43.977Z,49.85
2022-12-06T03:18:53.369Z,54.40
2022-12-06T03:22:02.909Z,50.65
2022-12-06T03:25:09.685Z,52.67
2022-12-06T03:28:16.473Z,41.97
2022-12-06T03:31:31.831Z,47.25
2022-12-06T03:34:41.526Z,46.05
2022-12-06T03:37:50.785Z,44.45
2022-12-06T03:41:00.558Z,39.55
2022-12-06T03:44:07.824Z,38.80
2022-12-06T03:47:16.307Z,42.13
2022-12-06T03:50:26.701Z,46.15
2022-12-06T03:53:31.906Z,47.60
2022-12-06T03:56:40.949Z,42.92
2022-12-06T03:59:48.792Z,40.83
2022-12-06T04:02:55.557Z,44.35
2022-12-06T04:06:07.505Z,36.28
2022-12-06T04:09:26.861Z,37.78
2022-12-06T04:12:44.543Z,42.17
2022-12-06T04:15:50.091Z,43.92
2022-12-06T04:18:52.316Z,52.20
2022-12-06T04:25:17.643Z,33.88
2022-12-06T04:28:35.265Z,38.55
2022-12-06T04:31:55.660Z,33.15
2022-12-06T04:35:13.316Z,37.88
2022-12-06T04:38:31.643Z,39.33
2022-12-06T04:41:55.573Z,31.00
2022-12-06T04:45:00.683Z,38.30
2022-12-06T04:48:06.587Z,40.40
2022-12-06T04:51:13.862Z,32.08
2022-12-06T04:54:20.631Z,44.97
2022-12-06T04:57:32.618Z,36.88
2022-12-06T05:00:38.296Z,39.05
2022-12-06T05:03:44.741Z,35.22
2022-12-06T05:06:52.657Z,37.65
2022-12-06T05:10:00.583Z,44.88
2022-12-06T05:13:10.444Z,34.63
2022-12-06T05:16:15.563Z,39.42
2022-12-06T05:19:21.213Z,40.70
2022-12-06T05:22:26.547Z,34.95
2022-12-06T05:25:32.967Z,36.45
2022-12-06T05:28:41.816Z,33.70
2022-12-06T05:31:48.292Z,38.67
2022-12-06T05:34:58.686Z,36.03
2022-12-06T05:38:06.717Z,30.15
2022-12-06T05:41:25.172Z,38.50
2022-12-06T05:44:33.516Z,33.85
2022-12-06T05:47:40.603Z,37.22
2022-12-06T05:50:47.217Z,40.47
2022-12-06T05:53:52.123Z,35.75
2022-12-06T05:56:59.044Z,36.92
2022-12-06T06:00:09.926Z,41.42
2022-12-06T06:03:16.992Z,32.53
2022-12-06T06:06:24.981Z,42.35
2022-12-06T06:09:32.992Z,38.25
2022-12-06T06:12:38.129Z,38.55
2022-12-06T06:15:47.590Z,35.25
2022-12-06T06:18:55.722Z,34.53
2022-12-06T06:22:02.449Z,42.58
2022-12-06T06:25:08.181Z,42.50
2022-12-06T06:28:15.445Z,29.83
2022-12-06T06:31:26.506Z,32.50
2022-12-06T06:34:32.205Z,43.40
2022-12-06T06:37:38.243Z,37.92
2022-12-06T06:40:44.681Z,38.20
2022-12-06T06:43:50.444Z,42.55
2022-12-06T06:47:05.482Z,43.60
2022-12-06T06:50:11.524Z,33.22
2022-12-06T06:53:20.646Z,42.78
2022-12-06T06:56:29.119Z,36.50
2022-12-06T06:59:36.177Z,32.40
2022-12-06T07:02:43.896Z,36.58
2022-12-06T07:05:54.060Z,37.03
2022-12-06T07:08:59.386Z,49.05
2022-12-06T07:12:05.103Z,38.20
2022-12-06T07:15:12.843Z,40.88
2022-12-06T07:18:23.124Z,33.58
2022-12-06T07:21:29.041Z,40.58
2022-12-06T07:24:39.896Z,26.00
2022-12-06T07:27:46.905Z,39.30
2022-12-06T07:30:52.506Z,38.63
2022-12-06T07:34:01.462Z,42.28
2022-12-06T07:37:10.742Z,47.13
2022-12-06T07:40:30.659Z,38.97
2022-12-06T07:43:53.280Z,25.08
2022-12-06T07:46:59.257Z,33.88
2022-12-06T07:50:12.862Z,35.55
2022-12-06T07:53:19.369Z,33.15
2022-12-06T07:56:25.203Z,31.00
2022-12-06T07:59:33.768Z,24.83
2022-12-06T08:02:39.394Z,32.42
2022-12-06T08:05:55.858Z,29.25
2022-12-06T08:09:02.181Z,30.48
2022-12-06T08:12:07.544Z,30.23
2022-12-06T08:15:14.547Z,31.77
2022-12-06T08:18:20.887Z,31.38
2022-12-06T08:21:28.985Z,27.98
2022-12-06T08:24:38.944Z,24.45
2022-12-06T08:27:46.117Z,20.58
2022-12-06T08:30:59.790Z,23.55
2022-12-06T08:34:09.882Z,25.10
2022-12-06T08:37:18.233Z,24.00
2022-12-06T08:40:26.331Z,21.27
2022-12-06T08:43:31.352Z,28.63
2022-12-06T08:46:37.776Z,19.83
2022-12-06T08:49:42.770Z,25.73
2022-12-06T08:52:51.282Z,17.80
2022-12-06T08:56:02.301Z,21.23
2022-12-06T08:59:08.555Z,19.60
2022-12-06T09:02:13.607Z,23.25
2022-12-06T09:05:19.365Z,27.90
2022-12-06T09:08:28.961Z,24.17
2022-12-06T09:11:35.407Z,23.75
2022-12-06T09:14:41.893Z,28.13
2022-12-06T09:17:49.977Z,26.75
2022-12-06T09:20:56.015Z,22.25
2022-12-06T09:24:04.356Z,23.30
2022-12-06T09:27:09.709Z,26.27
2022-12-06T09:30:17.233Z,19.73
2022-12-06T09:33:22.540Z,24.67
2022-12-06T09:36:29.143Z,21.45
2022-12-06T09:39:39.677Z,22.55
2022-12-06T09:42:50.397Z,22.67
2022-12-06T09:46:06.128Z,20.23
2022-12-06T09:49:19.963Z,15.70
2022-12-06T09:52:43.098Z,21.90
2022-12-06T09:55:59.714Z,22.48
2022-12-06T09:59:10.507Z,20.30
2022-12-06T10:02:26.271Z,21.02
2022-12-06T10:05:37.501Z,21.00
2022-12-06T10:08:55.822Z,18.73
2022-12-06T10:12:15.622Z,22.08
2022-12-06T10:15:27.315Z,18.95
2022-12-06T10:18:38.206Z,17.92
2022-12-06T10:22:04.944Z,14.32
2022-12-06T10:25:16.479Z,15.65
2022-12-06T10:28:29.131Z,17.33
2022-12-06T10:31:40.156Z,15.93
2022-12-06T10:34:51.881Z,18.20
2022-12-06T10:38:03.165Z,14.65
2022-12-06T10:41:15.598Z,16.40
2022-12-06T10:44:27.153Z,16.15
2022-12-06T10:47:41.888Z,13.00
2022-12-06T10:50:50.056Z,18.00
2022-12-06T10:53:57.906Z,19.75
2022-12-06T10:57:08.428Z,15.95
2022-12-06T11:00:22.758Z,12.32
2022-12-06T11:03:31.532Z,16.35
2022-12-06T11:06:48.850Z,16.23
2022-12-06T11:09:59.449Z,13.32
2022-12-06T11:13:13.424Z,16.00
2022-12-06T11:16:24.830Z,20.92
2022-12-06T11:19:32.826Z,14.40
2022-12-06T11:22:52.135Z,17.10
2022-12-06T11:26:07.873Z,14.68
2022-12-06T11:29:14.026Z,17.92
2022-12-06T11:32:24.287Z,14.15
2022-12-06T11:35:30.553Z,16.35
2022-12-06T11:38:38.792Z,12.35
2022-12-06T11:41:45.363Z,18.08
2022-12-06T11:44:56.996Z,11.93
2022-12-06T11:48:12.877Z,15.52
2022-12-06T11:51:21.386Z,15.00
2022-12-06T11:54:30.025Z,12.88
2022-12-06T11:57:38.314Z,11.95
2022-12-06T12:00:58.711Z,15.50
2022-12-06T12:04:26.546Z,16.38
2022-12-06T12:07:32.147Z,13.18
2022-12-06T12:10:39.529Z,17.55
2022-12-06T12:13:52.920Z,11.63
2022-12-06T12:17:01.613Z,13.57
2022-12-06T12:20:10.697Z,11.20
2022-12-06T12:23:21.463Z,11.73
2022-12-06T12:26:29.027Z,13.95
2022-12-06T12:29:34.782Z,13.88
2022-12-06T12:32:42.256Z,11.20
2022-12-06T12:35:52.376Z,9.95
2022-12-06T12:39:00.903Z,10.20
2022-12-06T12:42:28.736Z,11.55
2022-12-06T12:45:33.748Z,11.93
2022-12-06T12:48:42.986Z,12.30
2022-12-06T12:51:52.428Z,10.98
2022-12-06T12:55:04.234Z,13.68
2022-12-06T12:58:13.418Z,11.65
2022-12-06T13:01:27.075Z,12.57
2022-12-06T13:04:41.477Z,10.35
2022-12-06T13:07:52.088Z,7.15
2022-12-06T13:10:59.251Z,9.38
2022-12-06T13:14:06.216Z,9.20
2022-12-06T13:17:11.887Z,10.35
2022-12-06T13:20:24.206Z,8.10
2022-12-06T13:23:34.788Z,9.73
2022-12-06T13:26:42.273Z,9.85
2022-12-06T13:29:49.513Z,10.05
2022-12-06T13:32:57.507Z,8.75
2022-12-06T13:36:05.520Z,9.45
2022-12-06T13:39:26.074Z,10.50
2022-12-06T13:42:48.172Z,10.57
2022-12-06T13:45:55.826Z,10.43
2022-12-06T13:49:07.922Z,8.60
2022-12-06T13:52:33.707Z,7.70
2022-12-06T13:56:05.473Z,8.68
2022-12-06T13:59:26.858Z,7.40
2022-12-06T14:02:54.218Z,10.90
2022-12-06T14:06:14.371Z,10.75
2022-12-06T14:09:20.377Z,10.60
2022-12-06T14:12:29.253Z,12.07
2022-12-06T14:15:38.685Z,6.07
2022-12-06T14:18:45.747Z,7.80
2022-12-06T14:22:02.149Z,10.52
2022-12-06T14:25:23.200Z,12.10
2022-12-06T14:28:28.480Z,11.68
2022-12-06T14:31:40.848Z,15.07
2022-12-06T14:34:47.165Z,11.65
2022-12-06T14:38:00.561Z,14.60
2022-12-06T14:44:24.138Z,12.27
2022-12-06T14:47:30.454Z,16.33
2022-12-06T14:50:44.322Z,12.77
2022-12-06T14:53:54.641Z,14.38
2022-12-06T14:57:02.389Z,12.30
2022-12-06T15:00:16.872Z,10.95
2022-12-06T15:03:34.863Z,14.63
2022-12-06T15:06:53.454Z,14.25
2022-12-06T15:10:10.410Z,12.73
2022-12-06T15:13:18.413Z,11.32
2022-12-06T15:16:26.522Z,9.73
2022-12-06T15:19:33.961Z,13.63
2022-12-06T15:22:46.421Z,15.20
2022-12-06T15:25:55.667Z,12.60
2022-12-06T15:29:01.508Z,11.52
2022-12-06T15:32:09.644Z,11.50
2022-12-06T15:35:20.244Z,10.93
2022-12-06T15:38:26.649Z,13.07
2022-12-06T15:41:37.762Z,12.10
2022-12-06T15:44:48.827Z,9.90
2022-12-06T15:47:56.832Z,12.23
2022-12-06T15:51:06.681Z,10.80
2022-12-06T15:54:18.361Z,11.68
2022-12-06T15:57:35.568Z,10.35
2022-12-06T16:00:50.523Z,11.43
2022-12-06T16:03:58.454Z,15.65
2022-12-06T16:07:04.538Z,13.52
2022-12-06T16:10:16.646Z,15.07
2022-12-06T16:13:29.133Z,14.48
2022-12-06T16:16:43.075Z,12.48
2022-12-06T16:20:01.321Z,12.38
2022-12-06T16:23:24.835Z,7.28
2022-12-06T16:26:30.833Z,14.38
2022-12-06T16:29:39.255Z,15.68
2022-12-06T16:32:45.673Z,15.10
2022-12-06T16:36:00.767Z,11.73
2022-12-06T16:39:09.654Z,13.30
2022-12-06T16:42:16.983Z,13.95
2022-12-06T16:45:28.989Z,10.13
2022-12-06T16:48:36.302Z,7.88
2022-12-06T16:51:56.210Z,8.10
2022-12-06T16:55:02.050Z,15.70
2022-12-06T16:58:08.650Z,8.68
2022-12-06T17:01:39.667Z,8.20
2022-12-06T17:04:49.401Z,10.95
2022-12-06T17:07:55.814Z,9.15
2022-12-06T17:11:21.458Z,9.73
2022-12-06T17:14:42.628Z,8.60
2022-12-06T17:17:55.863Z,7.82
2022-12-06T17:21:16.958Z,6.65
2022-12-06T17:24:28.287Z,9.13
2022-12-06T17:27:52.328Z,6.68
2022-12-06T17:31:13.150Z,6.60
2022-12-06T17:34:20.183Z,7.82
2022-12-06T17:37:28.457Z,8.73
2022-12-06T17:40:37.714Z,8.82
2022-12-06T17:47:26.806Z,8.75
2022-12-06T17:50:32.941Z,7.82
2022-12-06T17:53:44.764Z,5.57
2022-12-06T17:56:51.163Z,9.35
2022-12-06T18:00:01.662Z,7.97
2022-12-06T18:03:07.266Z,7.65
2022-12-06T18:06:29.831Z,5.90
2022-12-06T18:09:38.735Z,8.13
2022-12-06T18:12:47.605Z,7.82
2022-12-06T18:15:55.444Z,6.35
2022-12-06T18:19:08.486Z,9.07
2022-12-06T18:22:15.807Z,6.40
2022-12-06T18:25:24.994Z,9.48
2022-12-06T18:28:30.466Z,7.30
2022-12-06T18:31:37.113Z,7.70
2022-12-06T18:34:45.545Z,7.63
2022-12-06T18:37:57.082Z,8.32
2022-12-06T18:41:11.688Z,7.43
2022-12-06T18:44:16.829Z,6.60
2022-12-06T18:47:25.734Z,9.48
2022-12-06T18:50:30.977Z,8.50
2022-12-06T18:53:45.981Z,7.78
2022-12-06T18:56:53.876Z,10.82
2022-12-06T18:59:59.898Z,8.30
2022-12-06T19:03:06.621Z,9.30
2022-12-06T19:06:13.047Z,11.05
2022-12-06T19:09:18.773Z,9.18
2022-12-06T19:12:30.511Z,8.55
2022-12-06T19:15:37.094Z,10.15
2022-12-06T19:18:44.962Z,12.23
2022-12-06T19:21:50.808Z,11.85
2022-12-06T19:24:59.090Z,10.52
2022-12-06T19:28:06.975Z,10.07
2022-12-06T19:31:15.065Z,10.00
2022-12-06T19:34:21.167Z,14.40
2022-12-06T19:37:34.339Z,9.05
2022-12-06T19:40:44.382Z,10.10
2022-12-06T19:44:04.855Z,12.55
2022-12-06T19:47:10.963Z,12.90
2022-12-06T19:50:17.388Z,14.95
2022-12-06T19:53:25.269Z,15.00
2022-12-06T19:56:33.089Z,9.20
2022-12-06T19:59:42.242Z,4.88
2022-12-06T20:02:48.917Z,1.83
2022-12-06T20:06:04.864Z,0.65
2022-12-06T20:09:12.860Z,0.68
2022-12-06T20:12:24.388Z,1.67
2022-12-06T20:15:37.737Z,2.25
2022-12-06T20:18:45.422Z,0.45
2022-12-06T20:21:53.882Z,0.65
2022-12-06T20:25:03.215Z,1.15
2022-12-06T20:28:13.315Z,1.40
2022-12-06T20:31:28.287Z,0.70
2022-12-06T20:34:35.171Z,0.30
2022-12-06T20:37:40.856Z,0.50
2022-12-06T20:40:47.538Z,0.88
2022-12-06T20:47:24.548Z,1.23
2022-12-06T20:50:37.958Z,0.57
2022-12-06T20:53:43.875Z,1.35
2022-12-06T20:56:52.146Z,2.67
2022-12-06T21:00:07.351Z,1.33
2022-12-06T21:03:16.818Z,0.50
2022-12-06T21:06:24.902Z,2.75
2022-12-06T21:09:30.213Z,1.00
2022-12-06T21:12:36.163Z,0.65
2022-12-06T21:15:44.228Z,1.27
2022-12-06T21:18:56.775Z,1.45
2022-12-06T21:22:08.319Z,0.82
2022-12-06T21:25:16.186Z,0.73
2022-12-06T21:28:22.229Z,0.50
2022-12-06T21:31:29.646Z,2.92
2022-12-06T21:34:46.539Z,0.90
2022-12-06T21:37:52.476Z,0.95
2022-12-06T21:41:07.573Z,2.75
2022-12-06T21:44:26.825Z,0.70
2022-12-06T21:47:34.128Z,1.23
2022-12-06T21:50:45.759Z,1.45
2022-12-06T21:53:54.636Z,2.85
2022-12-06T21:57:01.900Z,1.85
2022-12-06T22:00:11.204Z,1.17
2022-12-06T22:03:26.042Z,1.75
2022-12-06T22:06:35.890Z,1.63
2022-12-06T22:09:42.203Z,0.75
2022-12-06T22:12:52.834Z,5.88
2022-12-06T22:16:07.534Z,1.73
2022-12-06T22:19:16.210Z,1.65
2022-12-06T22:22:35.738Z,1.52
2022-12-06T22:25:46.982Z,2.47
2022-12-06T22:28:55.490Z,2.30
2022-12-06T22:32:00.759Z,0.90
2022-12-06T22:35:06.680Z,1.00
2022-12-06T22:38:14.825Z,1.25
2022-12-06T22:41:22.719Z,0.63
2022-12-06T22:44:32.529Z,1.10
2022-12-06T22:47:51.208Z,0.85
2022-12-06T22:50:57.112Z,1.95
2022-12-06T22:54:12.181Z,3.13
2022-12-06T22:57:22.306Z,1.67
2022-12-06T23:00:38.873Z,0.63
2022-12-06T23:03:50.100Z,1.45
2022-12-06T23:06:56.963Z,1.88
2022-12-06T23:10:08.043Z,0.70
2022-12-06T23:13:21.647Z,0.65
2022-12-06T23:16:30.619Z,1.33
2022-12-06T23:19:42.561Z,0.70
2022-12-06T23:22:48.150Z,3.92
2022-12-06T23:25:56.994Z,1.30
2022-12-06T23:29:03.698Z,1.35
2022-12-06T23:32:11.260Z,1.30
2022-12-06T23:35:16.503Z,1.40
2022-12-06T23:38:39.205Z,2.05
2022-12-06T23:41:52.182Z,1.48
2022-12-06T23:44:57.156Z,1.30
2022-12-06T23:48:05.295Z,2.42
2022-12-06T23:51:11.356Z,2.00
2022-12-06T23:54:17.810Z,2.58
2022-12-06T23:57:26.235Z,1.88
